createdAt,value
2023-03-27T09:31:50.924Z,60.4
2023-03-27T09:37:50.881Z,58.6
2023-03-27T09:43:50.880Z,64.1
2023-03-27T09:49:50.869Z,63.7
2023-03-27T09:55:50.869Z,57.1
2023-03-27T10:01:50.890Z,57.2
2023-03-27T10:07:50.886Z,56.7
2023-03-27T10:13:50.897Z,63.7
2023-03-27T10:19:50.888Z,58.9
2023-03-27T10:25:50.871Z,62.7
2023-03-27T10:31:50.946Z,67.9
2023-03-27T10:37:51.253Z,64.9
2023-03-27T10:43:50.869Z,63.3
2023-03-27T10:49:50.881Z,52.2
2023-03-27T10:55:50.900Z,48.5
2023-03-27T11:01:50.899Z,51.9
2023-03-27T11:07:50.893Z,48.1
2023-03-27T11:13:50.895Z,61.2
2023-03-27T11:19:50.862Z,58
2023-03-27T11:25:50.879Z,64.9
2023-03-27T11:31:50.959Z,74.9
2023-03-27T11:37:50.867Z,77.8
2023-03-27T11:43:50.864Z,78.5
2023-03-27T11:49:50.875Z,71.8
2023-03-27T11:55:50.869Z,67.4
2023-03-27T12:01:50.908Z,66.8
2023-03-27T12:07:50.878Z,72.4
2023-03-27T12:14:01.201Z,68.1
2023-03-27T12:19:50.887Z,68.6
2023-03-27T12:25:50.877Z,77.8
2023-03-27T12:31:50.889Z,87.3
2023-03-27T12:37:50.872Z,84.7
2023-03-27T12:43:50.856Z,90.1
2023-03-27T12:49:50.855Z,93.9
2023-03-27T12:55:50.925Z,100
2023-03-27T13:01:52.661Z,100
2023-03-27T13:07:52.756Z,100
2023-03-27T13:19:50.855Z,100
2023-03-27T13:25:50.855Z,96.2
2023-03-27T13:31:50.855Z,98.8
2023-03-27T13:37:50.872Z,83.9
2023-03-27T13:43:50.860Z,83.6
2023-03-27T13:49:50.845Z,73.9
2023-03-27T13:55:50.854Z,70.2
2023-03-27T14:01:50.873Z,70.3
2023-03-27T14:07:50.846Z,77.8
2023-03-27T14:13:50.855Z,95.1
2023-03-27T14:19:50.836Z,100
2023-03-27T14:25:50.940Z,100
2023-03-27T14:31:51.050Z,100
2023-03-27T14:37:50.836Z,99.8
2023-03-27T14:43:50.860Z,97.7
2023-03-27T14:49:50.853Z,94.7
2023-03-27T14:55:50.848Z,93.6
2023-03-27T15:01:50.839Z,93.6
2023-03-27T15:07:50.850Z,89.3
2023-03-27T15:13:50.845Z,83.7
2023-03-27T15:19:50.940Z,100
2023-03-27T15:25:50.892Z,100
2023-03-27T15:31:50.828Z,100
2023-03-27T15:37:50.853Z,100
2023-03-27T15:43:50.859Z,100
2023-03-27T15:49:50.855Z,100
2023-03-27T16:01:51.119Z,100
2023-03-27T16:07:50.832Z,100
2023-03-27T16:13:51.025Z,99.8
2023-03-27T16:19:50.851Z,98.8
2023-03-27T16:25:50.851Z,89.4
2023-03-27T16:31:50.838Z,85.3
2023-03-27T16:37:50.841Z,87.3
2023-03-27T16:43:50.818Z,87.3
2023-03-27T16:50:07.401Z,92.1
2023-03-27T16:55:50.838Z,99.3
2023-03-27T17:01:50.819Z,100
2023-03-27T17:07:50.816Z,100
2023-03-27T17:13:50.826Z,100
2023-03-27T17:19:50.829Z,100
2023-03-27T17:25:50.847Z,100
2023-03-27T17:31:50.892Z,100
2023-03-27T17:37:50.823Z,100
2023-03-27T17:43:50.854Z,100
2023-03-27T17:49:50.810Z,95.8
2023-03-27T17:55:50.854Z,93.3
2023-03-27T18:01:50.927Z,92.6
2023-03-27T18:07:50.817Z,92.7
2023-03-27T18:13:50.808Z,93
2023-03-27T18:19:50.817Z,94
2023-03-27T18:25:50.805Z,93.6
2023-03-27T18:31:50.856Z,93
2023-03-27T18:37:50.804Z,93.2
2023-03-27T18:43:50.813Z,94.4
2023-03-27T18:49:50.805Z,94.2
2023-03-27T18:55:51.067Z,95.7
2023-03-27T19:01:50.830Z,96.3
2023-03-27T19:13:50.808Z,97.6
2023-03-27T19:19:50.816Z,100
2023-03-27T19:25:50.797Z,100
2023-03-27T19:31:50.796Z,100
2023-03-27T19:37:50.802Z,100
2023-03-27T19:43:50.800Z,100
2023-03-27T19:49:50.784Z,100
2023-03-27T19:55:50.782Z,100
2023-03-27T20:01:50.830Z,100
2023-03-27T20:07:50.796Z,100
2023-03-27T20:13:56.516Z,100
2023-03-27T20:19:50.786Z,100
2023-03-27T20:25:50.776Z,100
2023-03-27T20:31:50.810Z,100
2023-03-27T20:37:50.795Z,100
2023-03-27T20:43:50.792Z,100
2023-03-27T20:49:50.798Z,100
2023-03-27T20:55:59.329Z,100
2023-03-27T21:01:50.847Z,100
2023-03-27T21:07:50.806Z,100
2023-03-27T21:13:50.780Z,100
2023-03-27T21:19:50.787Z,100
2023-03-27T21:25:50.787Z,100
2023-03-27T21:31:50.836Z,100
2023-03-27T21:37:50.780Z,100
2023-03-27T21:43:50.790Z,100
2023-03-27T21:49:50.768Z,100
2023-03-27T21:55:50.795Z,100
2023-03-27T22:01:50.855Z,100
2023-03-27T22:07:50.777Z,100
2023-03-27T22:13:50.792Z,100
2023-03-27T22:19:50.766Z,100
2023-03-27T22:25:50.774Z,100
2023-03-27T22:31:50.776Z,100
2023-03-27T22:37:50.763Z,100
2023-03-27T22:43:50.798Z,100
2023-03-27T22:49:50.761Z,100
2023-03-27T22:55:50.751Z,100
2023-03-27T23:01:50.805Z,100
2023-03-27T23:07:50.764Z,100
2023-03-27T23:13:50.755Z,100
2023-03-27T23:19:50.769Z,100
2023-03-27T23:25:50.768Z,100
2023-03-27T23:31:50.794Z,100
2023-03-27T23:37:50.811Z,100
2023-03-27T23:43:50.829Z,100
2023-03-27T23:49:50.760Z,100
2023-03-27T23:55:50.765Z,100
